Triddlers

Vá diretamente à ID do puzzle

Selecione o puzzle por:
Resolvidos Question organizar por
Mostrar mais filtros >>>
puzzles por página
Página nº de 193
Resultado: 3851 de 3851
ID Descrição Autor Data Tamanho Pontos Popularidade Tempo Médio Resolvidos
6731 Dewgong - Pokemon No. 087 galocha2003 19-05-2009 (11+25)x(30+18)x2 184.520 59,30% 00:25:21
6726 Pencil galocha2003 18-05-2009 (20+11)x(29+4)x2 66.283 61,38% 00:14:05
6716 Nose galocha2003 17-05-2009 (1+30)x(22+28)x2 22.436 76,67% 00:06:22
6706 Compass galocha2003 12-05-2009 (24+23)x(22+23)x2 45.160 71,49% 00:44:01
6703 Globe galocha2003 12-05-2009 (16+31)x(19+26)x2 92.341 67,96% 00:24:44
6699 Gingerbread Man galocha2003 11-05-2009 (11+29)x(29+20)x2 74.729 66,47% 00:19:44
6696 Rabbit galocha2003 11-05-2009 (18+21)x(32+11)x2 135.235 74,31% 00:16:51
6689 Sailboat galocha2003 10-05-2009 (25+25)x(25+20)x2 59.552 77,44% 00:21:50
6688 Ear galocha2003 10-05-2009 (15+17)x(30+19)x2 66.128 69,92% 00:12:41
6684 Strawberry galocha2003 10-05-2009 (17+23)x(20+28)x2 192.595 78,41% 00:50:01
6666 Pineapple galocha2003 04-05-2009 (18+24)x(25+25)x2 67.879 74,04% 00:38:54
6665 Maya's Friend galocha2003 04-05-2009 (12+26)x(29+21)x2 95.422 68,52% 00:37:11
6664 Crocodile galocha2003 04-05-2009 (19+23)x(27+23)x2 116.161 84,27% 00:46:22
6659 Woman amsterdam 03-05-2009 (25+25)x(25+25)x2 14.598 77,73% 00:39:42
6658 Strong Man galocha2003 03-05-2009 (37+9)x(7+28)x2 39.728 50,64% 00:17:08
6651 Dog koko 03-05-2009 (25+25)x(25+23)x2 381.382 71,12% 00:49:07
6645 Microscope galocha2003 30-04-2009 (6+37)x(27+22)x2 70.413 63,03% 00:15:50
6643 Rhino galocha2003 30-04-2009 (33+7)x(17+12)x2 97.857 73,10% 00:20:37
6639 Recycling galocha2003 29-04-2009 (23+21)x(21+24)x2 31.400 57,67% 00:14:36
6636 Cat galocha2003 29-04-2009 (18+26)x(21+26)x2 118.774 74,49% 00:24:55
puzzles por página
Página nº de 193
Resultado: 3851 de 3851